sensor_id;sensor_type;location;lat;lon;timestamp;pressure;altitude;pressure_sealevel;temperature;humidity
3832;BME280;12460;42.662;23.288;2023-03-21T00:08:00;94378.44;;;13.59;42.78
3832;BME280;12460;42.662;23.288;2023-03-21T00:23:05;94368.16;;;13.45;43.16
3832;BME280;12460;42.662;23.288;2023-03-21T00:38:10;94369.66;;;13.26;43.59
3832;BME280;12460;42.662;23.288;2023-03-21T00:53:15;94365.78;;;13.12;43.72
3832;BME280;12460;42.662;23.288;2023-03-21T01:08:21;94356.69;;;12.95;44.30
3832;BME280;12460;42.662;23.288;2023-03-21T01:23:34;94357.06;;;12.72;44.89
3832;BME280;12460;42.662;23.288;2023-03-21T01:38:38;94356.28;;;12.52;45.77
3832;BME280;12460;42.662;23.288;2023-03-21T01:53:44;94354.91;;;12.44;46.37
3832;BME280;12460;42.662;23.288;2023-03-21T02:08:51;94349.63;;;12.21;46.89
3832;BME280;12460;42.662;23.288;2023-03-21T02:54:48;94332.34;;;11.71;47.41
3832;BME280;12460;42.662;23.288;2023-03-21T03:25:41;94344.31;;;11.28;48.21
3832;BME280;12460;42.662;23.288;2023-03-21T03:40:54;94337.88;;;11.01;49.57
3832;BME280;12460;42.662;23.288;2023-03-21T03:56:11;94334.41;;;10.93;49.40
3832;BME280;12460;42.662;23.288;2023-03-21T04:11:17;94331.44;;;10.91;49.13
3832;BME280;12460;42.662;23.288;2023-03-21T04:26:26;94334.91;;;10.82;49.53
3832;BME280;12460;42.662;23.288;2023-03-21T04:41:55;94340.16;;;10.78;50.08
3832;BME280;12460;42.662;23.288;2023-03-21T04:57:00;94344.09;;;11.16;49.96
3832;BME280;12460;42.662;23.288;2023-03-21T05:12:05;94343.41;;;11.26;48.98
3832;BME280;12460;42.662;23.288;2023-03-21T05:27:11;94350.41;;;11.51;49.16
3832;BME280;12460;42.662;23.288;2023-03-21T05:42:21;94362.25;;;11.93;48.61
3832;BME280;12460;42.662;23.288;2023-03-21T05:57:26;94322.66;;;12.83;47.05
3832;BME280;12460;42.662;23.288;2023-03-21T06:12:35;94322.19;;;13.82;45.21
3832;BME280;12460;42.662;23.288;2023-03-21T06:27:57;94304.84;;;14.47;44.40
3832;BME280;12460;42.662;23.288;2023-03-21T06:43:02;94321.03;;;14.99;43.79
3832;BME280;12460;42.662;23.288;2023-03-21T06:58:07;94322.53;;;15.63;41.34
3832;BME280;12460;42.662;23.288;2023-03-21T07:13:12;94328.06;;;17.21;38.23
3832;BME280;12460;42.662;23.288;2023-03-21T07:28:22;94327.75;;;17.40;37.13
3832;BME280;12460;42.662;23.288;2023-03-21T07:43:27;94336.00;;;16.42;37.52
3832;BME280;12460;42.662;23.288;2023-03-21T07:58:34;94336.66;;;17.35;36.48
3832;BME280;12460;42.662;23.288;2023-03-21T08:13:39;94334.75;;;17.63;36.23
3832;BME280;12460;42.662;23.288;2023-03-21T08:28:44;94320.16;;;17.93;35.72
3832;BME280;12460;42.662;23.288;2023-03-21T08:43:49;94319.34;;;18.43;34.15
3832;BME280;12460;42.662;23.288;2023-03-21T08:58:54;94309.06;;;18.63;34.24
3832;BME280;12460;42.662;23.288;2023-03-21T09:14:00;94297.13;;;18.53;33.93
3832;BME280;12460;42.662;23.288;2023-03-21T09:29:05;94276.25;;;18.62;33.34
3832;BME280;12460;42.662;23.288;2023-03-21T09:44:23;94254.94;;;18.77;33.77
3832;BME280;12460;42.662;23.288;2023-03-21T09:59:34;94261.06;;;18.71;32.83
3832;BME280;12460;42.662;23.288;2023-03-21T10:14:47;94241.03;;;19.69;31.94
3832;BME280;12460;42.662;23.288;2023-03-21T10:29:53;94222.28;;;22.45;28.39
3832;BME280;12460;42.662;23.288;2023-03-21T10:45:00;94231.28;;;22.00;28.48
3832;BME280;12460;42.662;23.288;2023-03-21T11:00:09;94208.34;;;21.30;29.04
3832;BME280;12460;42.662;23.288;2023-03-21T11:30:55;94169.00;;;20.79;28.77
3832;BME280;12460;42.662;23.288;2023-03-21T11:46:08;94169.09;;;20.33;29.01
3832;BME280;12460;42.662;23.288;2023-03-21T12:01:41;94150.66;;;20.20;29.09
3832;BME280;12460;42.662;23.288;2023-03-21T12:32:30;94116.97;;;19.70;29.66
3832;BME280;12460;42.662;23.288;2023-03-21T12:47:41;94110.59;;;19.40;28.38
3832;BME280;12460;42.662;23.288;2023-03-21T13:02:52;94094.94;;;19.12;28.82
3832;BME280;12460;42.662;23.288;2023-03-21T13:18:30;94082.03;;;18.66;30.27
3832;BME280;12460;42.662;23.288;2023-03-21T13:33:39;94061.00;;;18.73;30.87
3832;BME280;12460;42.662;23.288;2023-03-21T13:48:57;94048.53;;;18.80;30.79
3832;BME280;12460;42.662;23.288;2023-03-21T14:04:25;94052.28;;;18.55;31.89
3832;BME280;12460;42.662;23.288;2023-03-21T14:19:36;94040.34;;;18.02;33.74
3832;BME280;12460;42.662;23.288;2023-03-21T14:34:42;94036.88;;;17.77;34.69
3832;BME280;12460;42.662;23.288;2023-03-21T14:49:48;94042.06;;;17.14;39.61
3832;BME280;12460;42.662;23.288;2023-03-21T15:04:57;94043.81;;;16.69;41.95
3832;BME280;12460;42.662;23.288;2023-03-21T15:20:02;94052.28;;;16.81;43.03
3832;BME280;12460;42.662;23.288;2023-03-21T15:35:15;94065.22;;;16.47;44.97
3832;BME280;12460;42.662;23.288;2023-03-21T16:05:32;94107.06;;;15.86;54.44
3832;BME280;12460;42.662;23.288;2023-03-21T16:20:45;94113.19;;;15.36;57.50
3832;BME280;12460;42.662;23.288;2023-03-21T16:35:51;94115.81;;;15.00;59.97
3832;BME280;12460;42.662;23.288;2023-03-21T16:50:57;94087.78;;;14.71;60.23
3832;BME280;12460;42.662;23.288;2023-03-21T17:06:01;94094.78;;;14.37;61.99
3832;BME280;12460;42.662;23.288;2023-03-21T17:21:20;94106.72;;;14.15;62.76
3832;BME280;12460;42.662;23.288;2023-03-21T17:36:37;94129.53;;;14.07;62.29
3832;BME280;12460;42.662;23.288;2023-03-21T17:51:42;94133.34;;;13.90;62.44
3832;BME280;12460;42.662;23.288;2023-03-21T18:06:50;94163.47;;;13.76;62.71
3832;BME280;12460;42.662;23.288;2023-03-21T18:21:56;94151.19;;;13.62;63.34
3832;BME280;12460;42.662;23.288;2023-03-21T18:37:01;94146.78;;;13.50;64.38
3832;BME280;12460;42.662;23.288;2023-03-21T18:52:07;94145.66;;;13.34;65.32
3832;BME280;12460;42.662;23.288;2023-03-21T19:07:12;94160.84;;;13.19;64.76
3832;BME280;12460;42.662;23.288;2023-03-21T19:22:16;94175.31;;;13.13;65.71
3832;BME280;12460;42.662;23.288;2023-03-21T19:37:21;94172.63;;;13.06;66.10
3832;BME280;12460;42.662;23.288;2023-03-21T19:52:25;94161.75;;;12.93;66.33
3832;BME280;12460;42.662;23.288;2023-03-21T20:07:30;94168.78;;;12.82;66.89
3832;BME280;12460;42.662;23.288;2023-03-21T20:22:35;94165.81;;;12.80;67.31
3832;BME280;12460;42.662;23.288;2023-03-21T20:38:02;94163.28;;;12.75;67.35
3832;BME280;12460;42.662;23.288;2023-03-21T20:53:07;94163.00;;;12.71;67.78
3832;BME280;12460;42.662;23.288;2023-03-21T21:08:11;94174.72;;;12.67;68.19
3832;BME280;12460;42.662;23.288;2023-03-21T21:23:15;94183.19;;;12.67;68.71
3832;BME280;12460;42.662;23.288;2023-03-21T21:38:19;94189.69;;;12.31;69.23
3832;BME280;12460;42.662;23.288;2023-03-21T21:53:24;94188.75;;;11.90;70.87
3832;BME280;12460;42.662;23.288;2023-03-21T22:08:31;94183.94;;;11.38;72.07
3832;BME280;12460;42.662;23.288;2023-03-21T22:23:35;94187.91;;;11.08;72.12
3832;BME280;12460;42.662;23.288;2023-03-21T22:38:40;94214.28;;;10.69;70.25
3832;BME280;12460;42.662;23.288;2023-03-21T22:53:46;94204.47;;;10.43;69.46
3832;BME280;12460;42.662;23.288;2023-03-21T23:08:51;94203.84;;;10.96;69.29
3832;BME280;12460;42.662;23.288;2023-03-21T23:23:56;94211.44;;;11.30;70.24
3832;BME280;12460;42.662;23.288;2023-03-21T23:39:01;94200.06;;;11.37;69.92
3832;BME280;12460;42.662;23.288;2023-03-21T23:54:06;94198.63;;;11.46;69.58
